createdAt,value
2022-09-21T00:01:22.386Z,7.03
2022-09-21T00:03:53.881Z,6.96
2022-09-21T00:06:22.975Z,6.93
2022-09-21T00:08:51.118Z,6.89
2022-09-21T00:11:21.074Z,6.88
2022-09-21T00:13:48.697Z,6.82
2022-09-21T00:16:17.071Z,6.81
2022-09-21T00:18:46.006Z,6.80
2022-09-21T00:21:15.748Z,6.83
2022-09-21T00:23:44.343Z,6.85
2022-09-21T00:26:14.364Z,6.84
2022-09-21T00:28:42.624Z,6.84
2022-09-21T00:31:12.336Z,6.86
2022-09-21T00:33:40.839Z,6.95
2022-09-21T00:36:11.455Z,6.93
2022-09-21T00:38:39.487Z,6.95
2022-09-21T00:41:08.996Z,7.02
2022-09-21T00:43:38.620Z,7.03
2022-09-21T00:46:14.030Z,6.98
2022-09-21T00:48:42.090Z,6.92
2022-09-21T00:51:11.435Z,6.91
2022-09-21T00:53:39.771Z,6.88
2022-09-21T00:56:10.452Z,6.90
2022-09-21T00:58:43.836Z,6.88
2022-09-21T01:01:12.987Z,6.84
2022-09-21T01:03:40.635Z,6.76
2022-09-21T01:06:08.215Z,6.70
2022-09-21T01:08:37.753Z,6.66
2022-09-21T01:11:28.098Z,6.73
2022-09-21T01:14:12.646Z,6.66
2022-09-21T01:16:46.359Z,6.53
2022-09-21T01:19:32.709Z,6.49
2022-09-21T01:22:08.326Z,6.47
2022-09-21T01:24:49.655Z,6.41
2022-09-21T01:27:36.038Z,6.49
2022-09-21T01:30:08.364Z,6.49
2022-09-21T01:32:39.616Z,6.43
2022-09-21T01:35:11.784Z,6.45
2022-09-21T01:37:43.879Z,6.39
2022-09-21T01:40:16.538Z,6.44
2022-09-21T01:42:45.911Z,6.38
2022-09-21T01:45:17.238Z,6.41
2022-09-21T01:47:48.463Z,6.41
2022-09-21T01:50:18.016Z,6.38
2022-09-21T01:52:53.143Z,6.40
2022-09-21T01:55:28.420Z,6.45
2022-09-21T01:58:01.011Z,6.40
2022-09-21T02:00:30.877Z,6.35
2022-09-21T02:03:03.111Z,6.29
2022-09-21T02:05:31.122Z,6.22
2022-09-21T02:07:59.604Z,6.22
2022-09-21T02:10:33.180Z,6.31
2022-09-21T02:13:05.580Z,6.31
2022-09-21T02:15:48.252Z,6.31
2022-09-21T02:18:22.799Z,6.27
2022-09-21T02:20:57.047Z,6.23
2022-09-21T02:23:29.040Z,6.13
2022-09-21T02:26:04.171Z,6.00
2022-09-21T02:28:44.346Z,6.05
2022-09-21T02:31:19.241Z,6.12
2022-09-21T02:33:59.740Z,6.19
2022-09-21T02:36:32.546Z,6.18
2022-09-21T02:39:06.212Z,6.15
2022-09-21T02:41:39.696Z,6.06
2022-09-21T02:44:12.788Z,5.93
2022-09-21T02:46:46.677Z,5.93
2022-09-21T02:49:20.773Z,5.89
2022-09-21T02:51:52.832Z,5.91
2022-09-21T02:54:24.927Z,5.93
2022-09-21T02:56:53.953Z,5.92
2022-09-21T02:59:21.626Z,5.91
2022-09-21T03:01:50.482Z,5.86
2022-09-21T03:04:18.547Z,5.87
2022-09-21T03:06:46.001Z,5.85
2022-09-21T03:09:13.487Z,5.82
2022-09-21T03:11:42.354Z,5.86
2022-09-21T03:14:10.046Z,5.77
2022-09-21T03:16:37.915Z,5.70
2022-09-21T03:19:06.800Z,5.77
2022-09-21T03:21:34.272Z,5.79
2022-09-21T03:24:01.895Z,5.63
2022-09-21T03:26:29.688Z,5.65
2022-09-21T03:28:57.396Z,5.65
2022-09-21T03:31:25.032Z,5.47
2022-09-21T03:33:52.626Z,5.50
2022-09-21T03:36:21.883Z,5.70
2022-09-21T03:38:49.924Z,5.73
2022-09-21T03:41:18.093Z,5.64
2022-09-21T03:43:45.568Z,5.62
2022-09-21T03:46:13.151Z,5.56
2022-09-21T03:48:42.354Z,5.58
2022-09-21T03:51:09.888Z,5.51
2022-09-21T03:53:38.710Z,5.42
2022-09-21T03:56:06.411Z,5.52
2022-09-21T03:58:33.891Z,5.60
2022-09-21T04:01:02.627Z,5.59
2022-09-21T04:03:30.475Z,5.62
2022-09-21T04:05:58.002Z,5.64
2022-09-21T04:08:25.474Z,5.73
2022-09-21T04:10:56.234Z,5.68
2022-09-21T04:13:24.726Z,5.67
2022-09-21T04:15:52.311Z,5.62
2022-09-21T04:18:20.159Z,5.59
2022-09-21T04:20:47.754Z,5.49
2022-09-21T04:23:15.220Z,5.55
2022-09-21T04:25:42.706Z,5.52
2022-09-21T04:28:11.552Z,5.45
2022-09-21T04:30:39.040Z,5.42
2022-09-21T04:33:06.582Z,5.39
2022-09-21T04:35:34.142Z,5.30
2022-09-21T04:38:01.847Z,5.31
2022-09-21T04:40:29.361Z,5.22
2022-09-21T04:42:56.863Z,5.12
2022-09-21T04:45:25.757Z,5.21
2022-09-21T04:47:53.226Z,5.44
2022-09-21T04:50:20.734Z,5.49
2022-09-21T04:52:48.643Z,5.52
2022-09-21T04:55:16.859Z,5.59
2022-09-21T04:57:44.331Z,5.61
2022-09-21T05:00:12.775Z,5.67
2022-09-21T05:02:41.581Z,5.69
2022-09-21T05:05:09.449Z,5.61
2022-09-21T05:07:36.920Z,5.67
2022-09-21T05:10:03.820Z,5.61
2022-09-21T05:12:31.513Z,5.63
2022-09-21T05:14:58.998Z,5.70
2022-09-21T05:17:26.631Z,5.72
2022-09-21T05:19:55.525Z,5.85
2022-09-21T05:22:23.315Z,5.99
2022-09-21T05:24:50.801Z,6.09
2022-09-21T05:27:18.266Z,6.18
2022-09-21T05:29:46.324Z,6.33
2022-09-21T05:32:19.879Z,6.97
2022-09-21T05:34:58.908Z,7.82
2022-09-21T05:37:44.242Z,8.97
2022-09-21T05:40:13.772Z,9.91
2022-09-21T05:42:42.210Z,10.70
2022-09-21T05:45:15.212Z,11.40
2022-09-21T05:47:51.736Z,12.06
2022-09-21T05:50:34.362Z,12.69
2022-09-21T05:53:12.608Z,13.41
2022-09-21T05:55:52.670Z,14.43
2022-09-21T05:58:28.069Z,15.47
2022-09-21T06:01:07.541Z,16.18
2022-09-21T06:03:36.184Z,16.73
2022-09-21T06:06:05.312Z,17.45
2022-09-21T06:08:32.812Z,18.38
2022-09-21T06:11:00.452Z,19.32
2022-09-21T06:13:28.296Z,20.13
2022-09-21T06:15:55.719Z,20.91
2022-09-21T06:18:23.156Z,21.74
2022-09-21T06:20:50.664Z,22.41
2022-09-21T06:23:19.445Z,23.06
2022-09-21T06:25:56.050Z,23.80
2022-09-21T06:28:26.518Z,24.19
2022-09-21T06:30:55.046Z,24.48
2022-09-21T06:33:23.560Z,24.86
2022-09-21T06:35:55.327Z,25.42
2022-09-21T06:38:25.624Z,26.07
2022-09-21T06:40:54.008Z,25.97
2022-09-21T06:43:21.715Z,25.86
2022-09-21T06:45:55.140Z,25.49
2022-09-21T06:48:23.695Z,24.33
2022-09-21T06:50:51.616Z,24.05
2022-09-21T06:53:19.130Z,22.19
2022-09-21T06:55:47.897Z,21.92
2022-09-21T06:58:15.438Z,21.08
2022-09-21T07:00:42.906Z,21.98
2022-09-21T07:03:12.001Z,21.60
2022-09-21T07:05:39.505Z,21.24
2022-09-21T07:10:04.895Z,21.17
2022-09-21T07:10:58.854Z,19.97
2022-09-21T07:13:26.496Z,18.98
2022-09-21T07:15:53.991Z,16.49
2022-09-21T07:18:21.807Z,16.42
2022-09-21T07:20:49.508Z,15.00
2022-09-21T07:23:19.168Z,16.03
2022-09-21T07:25:49.104Z,16.27
2022-09-21T07:28:18.199Z,16.29
2022-09-21T07:30:45.776Z,17.03
2022-09-21T07:33:13.239Z,16.24
2022-09-21T07:35:40.673Z,16.47
2022-09-21T07:38:11.382Z,15.39
2022-09-21T07:40:38.843Z,15.52
2022-09-21T07:43:06.450Z,17.17
2022-09-21T07:45:35.264Z,18.16
2022-09-21T07:48:05.905Z,17.37
2022-09-21T07:50:34.598Z,17.51
2022-09-21T07:53:02.419Z,17.95
2022-09-21T07:55:31.248Z,17.95
2022-09-21T07:58:16.404Z,17.30
2022-09-21T08:00:45.247Z,18.01
2022-09-21T08:03:12.900Z,18.67
2022-09-21T08:05:40.352Z,18.02
2022-09-21T08:08:08.102Z,17.08
2022-09-21T08:10:35.981Z,17.14
2022-09-21T08:13:03.539Z,16.97
2022-09-21T08:15:48.962Z,17.29
2022-09-21T08:18:18.813Z,16.46
2022-09-21T08:20:54.415Z,16.97
2022-09-21T08:23:21.913Z,16.88
2022-09-21T08:25:49.371Z,18.14
2022-09-21T08:28:18.438Z,18.55
2022-09-21T08:30:45.902Z,18.87
2022-09-21T08:33:13.508Z,19.53
2022-09-21T08:35:42.276Z,19.71
2022-09-21T08:38:10.027Z,19.67
2022-09-21T08:40:41.699Z,19.65
2022-09-21T08:43:13.194Z,19.00
2022-09-21T08:45:43.241Z,19.02
2022-09-21T08:48:16.267Z,19.80
2022-09-21T08:50:49.338Z,21.57
2022-09-21T08:53:20.548Z,21.16
2022-09-21T08:55:48.324Z,22.04
2022-09-21T08:58:23.763Z,21.91
2022-09-21T09:00:58.120Z,20.92
2022-09-21T09:03:47.749Z,20.50
2022-09-21T09:06:26.870Z,21.05
2022-09-21T09:09:25.301Z,21.62
2022-09-21T09:12:10.828Z,21.87
2022-09-21T09:14:55.074Z,21.69
2022-09-21T09:17:39.859Z,21.91
2022-09-21T09:20:14.198Z,20.69
2022-09-21T09:22:47.287Z,21.70
2022-09-21T09:25:21.705Z,20.86
2022-09-21T09:27:54.220Z,20.70
2022-09-21T09:30:24.685Z,19.39
2022-09-21T09:32:58.705Z,19.20
2022-09-21T09:35:29.664Z,18.64
2022-09-21T09:38:05.949Z,17.22
2022-09-21T09:40:52.735Z,18.74
2022-09-21T09:43:32.616Z,19.46
2022-09-21T09:46:12.707Z,20.08
2022-09-21T09:49:01.999Z,20.35
2022-09-21T09:51:29.496Z,19.27
2022-09-21T09:54:00.965Z,19.36
2022-09-21T09:56:28.550Z,18.19
2022-09-21T09:58:59.794Z,17.69
2022-09-21T10:01:43.849Z,19.25
2022-09-21T10:04:13.404Z,19.37
2022-09-21T10:06:46.049Z,19.42
2022-09-21T10:09:24.488Z,19.89
2022-09-21T10:11:53.596Z,19.71
2022-09-21T10:14:23.767Z,19.25
2022-09-21T10:16:52.903Z,17.28
2022-09-21T10:19:24.135Z,17.79
2022-09-21T10:21:58.075Z,18.52
2022-09-21T10:24:29.437Z,19.23
2022-09-21T10:27:04.569Z,19.25
2022-09-21T10:29:43.544Z,19.55
2022-09-21T10:32:23.456Z,19.97
2022-09-21T10:35:15.887Z,20.89
2022-09-21T10:37:45.474Z,20.36
2022-09-21T10:40:27.224Z,20.37
2022-09-21T10:42:58.545Z,20.84
2022-09-21T10:45:27.611Z,21.73
2022-09-21T10:47:57.863Z,19.68
2022-09-21T10:50:29.086Z,19.42
2022-09-21T10:53:01.160Z,19.31
2022-09-21T10:55:31.989Z,19.34
2022-09-21T10:58:00.775Z,19.12
2022-09-21T11:00:38.335Z,18.45
2022-09-21T11:03:34.595Z,19.69
2022-09-21T11:06:06.927Z,21.35
2022-09-21T11:08:39.388Z,20.51
2022-09-21T11:11:26.558Z,18.46
2022-09-21T11:14:01.015Z,19.07
2022-09-21T11:16:34.280Z,17.95
2022-09-21T11:19:15.898Z,18.72
2022-09-21T11:21:48.020Z,19.95
2022-09-21T11:24:25.198Z,20.35
2022-09-21T11:26:59.134Z,19.67
2022-09-21T11:29:32.398Z,19.06
2022-09-21T11:32:13.291Z,19.62
2022-09-21T11:34:59.146Z,20.09
2022-09-21T11:37:39.912Z,20.58
2022-09-21T11:40:21.843Z,22.27
2022-09-21T11:43:01.853Z,21.29
2022-09-21T11:45:50.644Z,21.02
2022-09-21T11:48:29.363Z,20.43
2022-09-21T11:51:08.716Z,21.56
2022-09-21T11:53:46.698Z,21.80
2022-09-21T11:56:35.481Z,22.03
2022-09-21T11:59:18.015Z,23.03
2022-09-21T12:02:01.989Z,22.77
2022-09-21T12:04:43.290Z,19.96
2022-09-21T12:07:27.510Z,19.48
2022-09-21T12:10:11.527Z,20.63
2022-09-21T12:12:44.552Z,21.23
2022-09-21T12:15:21.438Z,21.12
2022-09-21T12:17:58.493Z,21.90
2022-09-21T12:20:35.835Z,22.02
2022-09-21T12:23:09.588Z,23.82
2022-09-21T12:25:41.772Z,24.50
2022-09-21T12:28:17.421Z,25.18
2022-09-21T12:30:51.022Z,26.43
2022-09-21T12:33:23.459Z,25.60
2022-09-21T12:35:56.837Z,23.57
2022-09-21T12:38:29.362Z,22.14
2022-09-21T12:41:05.187Z,20.90
2022-09-21T12:43:39.201Z,20.40
2022-09-21T12:46:14.372Z,20.84
2022-09-21T12:48:42.381Z,22.26
2022-09-21T12:51:16.718Z,22.51
2022-09-21T12:53:50.861Z,22.84
2022-09-21T12:56:30.779Z,22.92
2022-09-21T12:59:11.911Z,22.49
2022-09-21T13:01:46.821Z,22.66
2022-09-21T13:04:28.904Z,22.72
2022-09-21T13:07:30.008Z,22.57
2022-09-21T13:09:58.649Z,22.53
2022-09-21T13:12:30.489Z,22.42
2022-09-21T13:15:03.752Z,21.83
2022-09-21T13:17:34.181Z,21.80
2022-09-21T13:20:07.120Z,22.62
2022-09-21T13:22:37.307Z,23.66
2022-09-21T13:25:09.276Z,24.66
2022-09-21T13:28:01.489Z,25.54
2022-09-21T13:30:40.950Z,24.06
2022-09-21T13:33:40.657Z,22.75
2022-09-21T13:36:31.155Z,20.93
2022-09-21T13:39:14.283Z,19.31
2022-09-21T13:42:03.786Z,18.38
2022-09-21T13:44:42.372Z,18.10
2022-09-21T13:47:11.267Z,18.02
2022-09-21T13:49:55.894Z,17.68
2022-09-21T13:52:31.470Z,17.81
2022-09-21T13:55:01.769Z,18.57
2022-09-21T13:57:36.791Z,19.11
2022-09-21T14:00:28.496Z,20.65
2022-09-21T14:03:00.484Z,20.29
2022-09-21T14:05:34.917Z,19.69
2022-09-21T14:08:04.337Z,19.60
2022-09-21T14:10:36.079Z,19.75
2022-09-21T14:13:07.369Z,19.24
2022-09-21T14:15:40.646Z,18.92
2022-09-21T14:18:21.389Z,18.81
2022-09-21T14:21:18.329Z,19.48
2022-09-21T14:24:20.198Z,19.28
2022-09-21T14:27:02.682Z,19.92
2022-09-21T14:29:40.255Z,20.20
2022-09-21T14:32:16.872Z,20.70
2022-09-21T14:34:48.271Z,21.29
2022-09-21T14:37:27.555Z,20.81
2022-09-21T14:39:55.910Z,20.64
2022-09-21T14:42:27.268Z,20.39
2022-09-21T14:44:57.820Z,20.45
2022-09-21T14:47:51.949Z,20.58
2022-09-21T14:50:31.999Z,20.84
2022-09-21T14:53:29.292Z,20.67
2022-09-21T14:56:10.096Z,20.32
2022-09-21T14:58:49.967Z,20.23
2022-09-21T15:01:37.277Z,20.84
2022-09-21T15:04:24.292Z,20.56
2022-09-21T15:07:18.532Z,20.03
2022-09-21T15:10:21.823Z,20.19
2022-09-21T15:12:57.244Z,19.97
2022-09-21T15:15:34.672Z,19.11
2022-09-21T15:18:03.752Z,18.64
2022-09-21T15:20:33.064Z,18.92
2022-09-21T15:23:02.051Z,19.30
2022-09-21T15:25:34.396Z,19.09
2022-09-21T15:28:03.901Z,19.82
2022-09-21T15:30:34.060Z,20.02
2022-09-21T15:33:02.987Z,19.72
2022-09-21T15:35:32.528Z,19.92
2022-09-21T15:38:01.764Z,19.79
2022-09-21T15:40:33.160Z,18.69
2022-09-21T15:43:04.409Z,18.17
2022-09-21T15:45:37.189Z,17.91
2022-09-21T15:48:10.043Z,18.33
2022-09-21T15:50:38.984Z,18.79
2022-09-21T15:53:10.513Z,18.75
2022-09-21T15:55:39.389Z,18.93
2022-09-21T15:58:20.754Z,19.48
2022-09-21T16:00:54.931Z,18.67
2022-09-21T16:03:25.833Z,18.14
2022-09-21T16:05:55.374Z,17.95
2022-09-21T16:08:33.009Z,18.37
2022-09-21T16:11:14.997Z,18.40
2022-09-21T16:14:00.967Z,18.46
2022-09-21T16:16:28.778Z,18.19
2022-09-21T16:18:59.906Z,18.09
2022-09-21T16:21:29.147Z,18.01
2022-09-21T16:23:58.617Z,17.81
2022-09-21T16:26:32.194Z,17.14
2022-09-21T16:29:18.947Z,17.09
2022-09-21T16:31:50.169Z,17.01
2022-09-21T16:34:36.727Z,16.67
2022-09-21T16:37:24.162Z,17.16
2022-09-21T16:39:52.858Z,16.83
2022-09-21T16:42:23.110Z,16.52
2022-09-21T16:44:51.418Z,15.87
2022-09-21T16:47:25.158Z,15.70
2022-09-21T16:49:56.392Z,15.86
2022-09-21T16:52:24.506Z,15.74
2022-09-21T16:54:52.288Z,15.85
2022-09-21T16:57:21.356Z,15.91
2022-09-21T16:59:50.259Z,15.51
2022-09-21T17:02:18.834Z,15.49
2022-09-21T17:04:47.872Z,15.19
2022-09-21T17:07:16.652Z,15.13
2022-09-21T17:09:47.455Z,14.90
2022-09-21T17:12:17.485Z,14.72
2022-09-21T17:14:47.281Z,14.13
2022-09-21T17:17:18.641Z,14.09
2022-09-21T17:19:49.649Z,13.94
2022-09-21T17:22:18.061Z,13.83
2022-09-21T17:24:50.931Z,13.67
2022-09-21T17:27:21.366Z,13.49
2022-09-21T17:29:51.106Z,13.33
2022-09-21T17:32:20.654Z,13.14
2022-09-21T17:34:53.198Z,12.99
2022-09-21T17:37:21.772Z,12.85
2022-09-21T17:39:49.814Z,12.64
2022-09-21T17:42:21.093Z,12.44
2022-09-21T17:45:04.982Z,12.32
2022-09-21T17:47:33.947Z,12.17
2022-09-21T17:50:15.416Z,11.93
2022-09-21T17:53:02.267Z,11.73
2022-09-21T17:55:30.895Z,11.60
2022-09-21T17:58:09.843Z,11.56
2022-09-21T18:00:50.396Z,11.62
2022-09-21T18:03:22.737Z,11.63
2022-09-21T18:05:52.682Z,11.50
2022-09-21T18:08:20.539Z,11.29
2022-09-21T18:11:04.247Z,11.38
2022-09-21T18:13:42.513Z,11.32
2022-09-21T18:16:22.710Z,11.18
2022-09-21T18:18:59.454Z,11.08
2022-09-21T18:21:27.995Z,10.93
2022-09-21T18:24:15.383Z,10.90
2022-09-21T18:26:43.684Z,10.91
2022-09-21T18:29:38.919Z,10.91
2022-09-21T18:32:25.231Z,10.51
2022-09-21T18:35:18.344Z,10.49
2022-09-21T18:37:56.682Z,10.56
2022-09-21T18:40:32.972Z,10.50
2022-09-21T18:43:11.667Z,10.60
2022-09-21T18:45:43.751Z,10.59
2022-09-21T18:48:23.415Z,10.24
2022-09-21T18:50:57.719Z,10.31
2022-09-21T18:53:33.851Z,10.28
2022-09-21T18:56:02.257Z,10.23
2022-09-21T18:58:30.924Z,10.07
2022-09-21T19:01:00.249Z,10.14
2022-09-21T19:03:29.904Z,10.15
2022-09-21T19:06:16.097Z,10.05
2022-09-21T19:08:50.272Z,9.86
2022-09-21T19:11:27.414Z,9.87
2022-09-21T19:14:01.718Z,9.95
2022-09-21T19:16:34.854Z,9.88
2022-09-21T19:19:15.544Z,9.93
2022-09-21T19:21:47.647Z,9.78
2022-09-21T19:24:23.991Z,9.88
2022-09-21T19:27:11.953Z,9.69
2022-09-21T19:29:50.185Z,9.64
2022-09-21T19:32:19.439Z,9.71
2022-09-21T19:34:48.550Z,9.73
2022-09-21T19:37:16.206Z,9.61
2022-09-21T19:39:44.143Z,9.45
2022-09-21T19:42:29.907Z,9.22
2022-09-21T19:45:13.498Z,9.46
2022-09-21T19:47:48.084Z,9.61
2022-09-21T19:50:19.564Z,9.60
2022-09-21T19:52:47.692Z,9.50
2022-09-21T19:55:35.065Z,9.46
2022-09-21T19:58:20.752Z,9.32
2022-09-21T20:00:52.885Z,9.37
2022-09-21T20:03:31.237Z,9.35
2022-09-21T20:06:05.935Z,9.28
2022-09-21T20:08:40.192Z,9.19
2022-09-21T20:11:12.607Z,8.94
2022-09-21T20:13:53.014Z,8.80
2022-09-21T20:16:37.187Z,9.04
2022-09-21T20:19:13.119Z,9.04
2022-09-21T20:21:44.258Z,9.05
2022-09-21T20:24:20.293Z,9.10
2022-09-21T20:26:49.970Z,9.01
2022-09-21T20:29:18.163Z,8.94
2022-09-21T20:31:47.280Z,8.76
2022-09-21T20:34:15.477Z,8.80
2022-09-21T20:36:44.250Z,8.64
2022-09-21T20:39:11.758Z,8.82
2022-09-21T20:41:39.532Z,8.88
2022-09-21T20:44:07.021Z,8.89
2022-09-21T20:46:34.459Z,8.80
2022-09-21T20:49:04.678Z,8.73
2022-09-21T20:51:33.838Z,8.78
2022-09-21T20:54:03.059Z,8.74
2022-09-21T20:56:31.300Z,8.74
2022-09-21T20:58:59.267Z,8.74
2022-09-21T21:01:26.863Z,8.66
2022-09-21T21:04:01.474Z,8.45
2022-09-21T21:06:31.112Z,8.24
2022-09-21T21:08:59.068Z,8.63
2022-09-21T21:11:28.420Z,8.66
2022-09-21T21:13:56.731Z,8.67
2022-09-21T21:16:24.577Z,8.58
2022-09-21T21:18:52.099Z,8.48
2022-09-21T21:21:19.530Z,8.46
2022-09-21T21:24:07.690Z,8.51
2022-09-21T21:26:57.765Z,8.44
2022-09-21T21:29:24.491Z,8.50
2022-09-21T21:31:51.997Z,8.45
2022-09-21T21:34:19.479Z,8.47
2022-09-21T21:36:46.974Z,8.45
2022-09-21T21:39:14.521Z,8.38
2022-09-21T21:41:43.671Z,8.38
2022-09-21T21:44:11.393Z,8.38
2022-09-21T21:46:39.207Z,8.44
2022-09-21T21:49:07.014Z,8.44
2022-09-21T21:51:34.541Z,8.42
2022-09-21T21:54:02.330Z,8.35
2022-09-21T21:56:29.804Z,8.27
2022-09-21T21:58:58.648Z,8.16
2022-09-21T22:01:28.049Z,8.21
2022-09-21T22:03:57.105Z,8.12
2022-09-21T22:06:25.153Z,8.03
2022-09-21T22:08:53.260Z,8.09
2022-09-21T22:11:22.190Z,8.05
2022-09-21T22:13:50.334Z,8.02
2022-09-21T22:16:22.010Z,8.00
2022-09-21T22:18:50.692Z,7.97
2022-09-21T22:21:21.482Z,7.96
2022-09-21T22:23:53.038Z,7.90
2022-09-21T22:26:21.588Z,7.70
2022-09-21T22:28:51.128Z,7.83
2022-09-21T22:31:21.625Z,7.92
2022-09-21T22:33:49.870Z,7.94
2022-09-21T22:36:19.426Z,7.95
2022-09-21T22:38:47.905Z,7.77
2022-09-21T22:41:17.877Z,7.76
2022-09-21T22:43:46.177Z,7.84
2022-09-21T22:46:14.294Z,7.84
2022-09-21T22:48:43.622Z,7.83
2022-09-21T22:51:11.442Z,7.77
2022-09-21T22:53:39.508Z,7.72
2022-09-21T22:56:09.381Z,7.68
2022-09-21T22:58:39.919Z,7.38
2022-09-21T23:01:10.366Z,7.61
2022-09-21T23:03:39.029Z,7.67
2022-09-21T23:06:10.239Z,7.69
2022-09-21T23:08:38.881Z,7.66
2022-09-21T23:11:08.016Z,7.55
2022-09-21T23:13:35.537Z,7.62
2022-09-21T23:16:04.625Z,7.68
2022-09-21T23:18:32.751Z,7.59
2022-09-21T23:21:01.492Z,7.64
2022-09-21T23:23:31.316Z,7.63
2022-09-21T23:26:03.562Z,7.34
2022-09-21T23:28:31.062Z,7.27
2022-09-21T23:31:00.275Z,7.37
2022-09-21T23:33:32.273Z,7.47
2022-09-21T23:36:00.097Z,7.43
2022-09-21T23:38:29.321Z,7.38
2022-09-21T23:41:06.453Z,7.57
2022-09-21T23:43:35.115Z,7.57
2022-09-21T23:46:02.930Z,7.55
2022-09-21T23:48:30.881Z,7.49
2022-09-21T23:50:59.393Z,7.55
2022-09-21T23:53:28.357Z,7.50
2022-09-21T23:55:57.457Z,7.50
2022-09-21T23:58:27.414Z,7.50
